Archival Weather

Chicago O'Hare International

Chicago, Illinois (KORD)

Report from: Thursday, April 13, 2023 11:51 AM CDT
Current time: Sunday, February 25, 2024 4:37 PM CST

Current weather – Weather history – Daily summaries
Weather forecast

Temperature24.4°C (75.9°F)
Dew point6.1°C (43.0°F)
Winds 11 kts (5.7 m/s, 12.7 mph) Vrb
Winds variableWinds variable from South-Southwest (210°) to West (280°)
Visibility10 mi. (16.1 km)
Clouds Few clouds 25,000 ft. (7,620 m)
Ceiling: Broken clouds 30,000 ft. (9,144 m)
Altimeter29.89 in.Hg (1012 mB)
Relative humidity31 %
Density altitude1,274 ft. (388 m)
Sea-level pressure101.2 kPa (1012 mB, 29.88 in.Hg)
Remarks Automated weather observing station with precipitation discriminator
Flight conditions Visual Meteorological Conditions
Raw dataKORD 131651Z 24011KT 210V280 10SM FEW250 BKN300 24/06 A2989 RMK AO2 SLP119 T02440061
An error has occurred. This application may no longer respond until reloaded. Reload 🗙